sensor_id;sensor_type;location;lat;lon;timestamp;pressure;altitude;pressure_sealevel;temperature;humidity
74675;BME280;63200;48.810;12.352;2023-09-19T00:02:12;97091.50;;;14.31;100.00
74675;BME280;63200;48.810;12.352;2023-09-19T00:04:37;97101.97;;;14.38;100.00
74675;BME280;63200;48.810;12.352;2023-09-19T00:07:05;97089.13;;;14.47;100.00
74675;BME280;63200;48.810;12.352;2023-09-19T00:09:30;97049.13;;;14.33;100.00
74675;BME280;63200;48.810;12.352;2023-09-19T00:12:02;97061.97;;;14.42;100.00
74675;BME280;63200;48.810;12.352;2023-09-19T00:14:28;97089.84;;;14.70;100.00
74675;BME280;63200;48.810;12.352;2023-09-19T00:16:53;97081.16;;;14.77;100.00
74675;BME280;63200;48.810;12.352;2023-09-19T00:19:19;97093.22;;;14.85;100.00
74675;BME280;63200;48.810;12.352;2023-09-19T00:21:45;97088.22;;;14.87;100.00
74675;BME280;63200;48.810;12.352;2023-09-19T00:24:12;97097.38;;;14.91;100.00
74675;BME280;63200;48.810;12.352;2023-09-19T00:26:38;97093.84;;;14.90;100.00
74675;BME280;63200;48.810;12.352;2023-09-19T00:29:03;97100.59;;;14.84;100.00
74675;BME280;63200;48.810;12.352;2023-09-19T00:31:28;97095.13;;;14.75;100.00
74675;BME280;63200;48.810;12.352;2023-09-19T00:33:55;97097.88;;;14.75;100.00
74675;BME280;63200;48.810;12.352;2023-09-19T00:36:22;97105.75;;;14.77;100.00
74675;BME280;63200;48.810;12.352;2023-09-19T00:38:48;97091.75;;;14.78;100.00
74675;BME280;63200;48.810;12.352;2023-09-19T00:41:13;97093.84;;;14.81;100.00
74675;BME280;63200;48.810;12.352;2023-09-19T00:43:38;97093.38;;;14.79;100.00
74675;BME280;63200;48.810;12.352;2023-09-19T00:46:06;97095.78;;;14.81;100.00
74675;BME280;63200;48.810;12.352;2023-09-19T00:48:39;97104.47;;;14.83;100.00
74675;BME280;63200;48.810;12.352;2023-09-19T00:51:05;97095.78;;;14.81;100.00
74675;BME280;63200;48.810;12.352;2023-09-19T00:53:31;97071.97;;;14.64;100.00
74675;BME280;63200;48.810;12.352;2023-09-19T00:55:56;97059.88;;;14.56;100.00
74675;BME280;63200;48.810;12.352;2023-09-19T00:58:22;97105.41;;;14.78;100.00
74675;BME280;63200;48.810;12.352;2023-09-19T01:00:50;97099.00;;;14.74;100.00
74675;BME280;63200;48.810;12.352;2023-09-19T01:03:17;97112.47;;;14.62;100.00
74675;BME280;63200;48.810;12.352;2023-09-19T01:05:43;97102.78;;;14.47;100.00
74675;BME280;63200;48.810;12.352;2023-09-19T01:08:08;97102.47;;;14.40;100.00
74675;BME280;63200;48.810;12.352;2023-09-19T01:10:39;97108.41;;;14.33;100.00
74675;BME280;63200;48.810;12.352;2023-09-19T01:13:27;97106.63;;;14.37;100.00
74675;BME280;63200;48.810;12.352;2023-09-19T01:15:59;97106.81;;;14.41;100.00
74675;BME280;63200;48.810;12.352;2023-09-19T01:18:45;97113.06;;;14.41;100.00
74675;BME280;63200;48.810;12.352;2023-09-19T01:21:28;97108.38;;;14.42;100.00
74675;BME280;63200;48.810;12.352;2023-09-19T01:24:10;97115.00;;;14.41;100.00
74675;BME280;63200;48.810;12.352;2023-09-19T01:29:45;97115.28;;;14.39;100.00
74675;BME280;63200;48.810;12.352;2023-09-19T01:32:14;97121.91;;;14.47;100.00
74675;BME280;63200;48.810;12.352;2023-09-19T01:37:14;97128.03;;;14.53;100.00
74675;BME280;63200;48.810;12.352;2023-09-19T01:39:46;97130.28;;;14.50;100.00
74675;BME280;63200;48.810;12.352;2023-09-19T01:42:42;97136.88;;;14.58;100.00
74675;BME280;63200;48.810;12.352;2023-09-19T01:47:46;97137.19;;;14.57;100.00
74675;BME280;63200;48.810;12.352;2023-09-19T01:53:03;97145.06;;;14.58;100.00
74675;BME280;63200;48.810;12.352;2023-09-19T01:55:30;97146.19;;;14.57;100.00
74675;BME280;63200;48.810;12.352;2023-09-19T01:58:07;97139.50;;;14.63;100.00
74675;BME280;63200;48.810;12.352;2023-09-19T02:00:36;97143.97;;;14.68;100.00
74675;BME280;63200;48.810;12.352;2023-09-19T02:03:02;97147.22;;;14.70;100.00
74675;BME280;63200;48.810;12.352;2023-09-19T02:05:28;97105.03;;;14.45;100.00
74675;BME280;63200;48.810;12.352;2023-09-19T02:07:54;97147.84;;;14.76;100.00
74675;BME280;63200;48.810;12.352;2023-09-19T02:10:20;97143.03;;;14.81;100.00
74675;BME280;63200;48.810;12.352;2023-09-19T02:12:46;97134.81;;;14.81;100.00
74675;BME280;63200;48.810;12.352;2023-09-19T02:15:11;97140.28;;;14.81;100.00
74675;BME280;63200;48.810;12.352;2023-09-19T02:17:37;97140.16;;;14.78;100.00
74675;BME280;63200;48.810;12.352;2023-09-19T02:20:03;97126.47;;;14.69;100.00
74675;BME280;63200;48.810;12.352;2023-09-19T02:22:36;97141.41;;;14.72;100.00
74675;BME280;63200;48.810;12.352;2023-09-19T02:25:02;97130.81;;;14.70;100.00
74675;BME280;63200;48.810;12.352;2023-09-19T02:27:29;97131.94;;;14.69;100.00
74675;BME280;63200;48.810;12.352;2023-09-19T02:29:56;97135.31;;;14.66;100.00
74675;BME280;63200;48.810;12.352;2023-09-19T02:32:21;97132.19;;;14.59;100.00
74675;BME280;63200;48.810;12.352;2023-09-19T02:34:46;97127.84;;;14.58;100.00
74675;BME280;63200;48.810;12.352;2023-09-19T02:37:13;97129.47;;;14.59;100.00
74675;BME280;63200;48.810;12.352;2023-09-19T02:39:41;97128.69;;;14.58;100.00
74675;BME280;63200;48.810;12.352;2023-09-19T02:42:06;97120.66;;;14.62;100.00
74675;BME280;63200;48.810;12.352;2023-09-19T02:44:32;97124.97;;;14.63;100.00
74675;BME280;63200;48.810;12.352;2023-09-19T02:46:57;97129.34;;;14.64;100.00
74675;BME280;63200;48.810;12.352;2023-09-19T02:49:23;97133.38;;;14.66;100.00
74675;BME280;63200;48.810;12.352;2023-09-19T02:51:48;97135.00;;;14.68;100.00
74675;BME280;63200;48.810;12.352;2023-09-19T02:54:14;97129.03;;;14.65;100.00
74675;BME280;63200;48.810;12.352;2023-09-19T02:56:41;97137.22;;;14.65;100.00
74675;BME280;63200;48.810;12.352;2023-09-19T02:59:06;97145.75;;;14.64;100.00
74675;BME280;63200;48.810;12.352;2023-09-19T03:01:32;97147.81;;;14.67;100.00
74675;BME280;63200;48.810;12.352;2023-09-19T03:03:57;97146.56;;;14.73;100.00
74675;BME280;63200;48.810;12.352;2023-09-19T03:06:23;97148.03;;;14.79;100.00
74675;BME280;63200;48.810;12.352;2023-09-19T03:08:49;97142.41;;;14.85;100.00
74675;BME280;63200;48.810;12.352;2023-09-19T03:11:16;97152.50;;;14.84;100.00
74675;BME280;63200;48.810;12.352;2023-09-19T03:13:50;97141.44;;;14.80;100.00
74675;BME280;63200;48.810;12.352;2023-09-19T03:16:15;97154.59;;;14.78;100.00
74675;BME280;63200;48.810;12.352;2023-09-19T03:18:41;97159.75;;;14.80;100.00
74675;BME280;63200;48.810;12.352;2023-09-19T03:21:06;97161.34;;;14.81;100.00
74675;BME280;63200;48.810;12.352;2023-09-19T03:23:32;97160.56;;;14.80;100.00
74675;BME280;63200;48.810;12.352;2023-09-19T03:25:57;97161.84;;;14.83;100.00
74675;BME280;63200;48.810;12.352;2023-09-19T03:28:24;97165.72;;;14.82;100.00
74675;BME280;63200;48.810;12.352;2023-09-19T03:31:02;97170.53;;;14.85;100.00
74675;BME280;63200;48.810;12.352;2023-09-19T03:33:28;97167.47;;;14.87;100.00
74675;BME280;63200;48.810;12.352;2023-09-19T03:35:56;97174.88;;;14.86;100.00
74675;BME280;63200;48.810;12.352;2023-09-19T03:38:23;97178.41;;;14.87;100.00
74675;BME280;63200;48.810;12.352;2023-09-19T03:40:48;97178.25;;;14.83;100.00
74675;BME280;63200;48.810;12.352;2023-09-19T03:43:14;97184.50;;;14.83;100.00
74675;BME280;63200;48.810;12.352;2023-09-19T03:45:39;97182.25;;;14.86;100.00
74675;BME280;63200;48.810;12.352;2023-09-19T03:48:09;97183.88;;;14.87;100.00
74675;BME280;63200;48.810;12.352;2023-09-19T03:50:34;97174.06;;;14.86;100.00
74675;BME280;63200;48.810;12.352;2023-09-19T03:52:59;97177.44;;;14.82;100.00
74675;BME280;63200;48.810;12.352;2023-09-19T03:55:25;97177.75;;;14.81;100.00
74675;BME280;63200;48.810;12.352;2023-09-19T03:57:50;97176.13;;;14.80;100.00
74675;BME280;63200;48.810;12.352;2023-09-19T04:00:15;97185.16;;;14.80;100.00
74675;BME280;63200;48.810;12.352;2023-09-19T04:02:43;97178.09;;;14.79;100.00
74675;BME280;63200;48.810;12.352;2023-09-19T04:05:11;97172.47;;;14.85;100.00
74675;BME280;63200;48.810;12.352;2023-09-19T04:07:36;97136.91;;;14.67;100.00
74675;BME280;63200;48.810;12.352;2023-09-19T04:10:02;97188.88;;;15.02;100.00
74675;BME280;63200;48.810;12.352;2023-09-19T04:12:28;97188.38;;;15.09;100.00
74675;BME280;63200;48.810;12.352;2023-09-19T04:14:53;97145.47;;;15.01;100.00
74675;BME280;63200;48.810;12.352;2023-09-19T04:17:19;97181.28;;;15.25;100.00
74675;BME280;63200;48.810;12.352;2023-09-19T04:19:44;97182.28;;;15.21;100.00
74675;BME280;63200;48.810;12.352;2023-09-19T04:22:10;97156.41;;;15.01;100.00
74675;BME280;63200;48.810;12.352;2023-09-19T04:24:37;97199.16;;;15.31;100.00
74675;BME280;63200;48.810;12.352;2023-09-19T04:27:03;97186.78;;;15.34;100.00
74675;BME280;63200;48.810;12.352;2023-09-19T04:29:29;97143.22;;;14.94;100.00
74675;BME280;63200;48.810;12.352;2023-09-19T04:31:55;97204.31;;;15.33;100.00
74675;BME280;63200;48.810;12.352;2023-09-19T04:34:21;97203.50;;;15.32;100.00
74675;BME280;63200;48.810;12.352;2023-09-19T04:36:47;97197.56;;;15.30;100.00
74675;BME280;63200;48.810;12.352;2023-09-19T04:39:12;97182.59;;;15.19;100.00
74675;BME280;63200;48.810;12.352;2023-09-19T04:41:38;97211.88;;;15.36;100.00
74675;BME280;63200;48.810;12.352;2023-09-19T04:44:06;97133.72;;;14.91;100.00
74675;BME280;63200;48.810;12.352;2023-09-19T04:46:31;97207.22;;;15.37;100.00
74675;BME280;63200;48.810;12.352;2023-09-19T04:48:56;97209.63;;;15.38;100.00
74675;BME280;63200;48.810;12.352;2023-09-19T04:51:22;97201.25;;;15.43;100.00
74675;BME280;63200;48.810;12.352;2023-09-19T04:53:48;97217.00;;;15.46;100.00
74675;BME280;63200;48.810;12.352;2023-09-19T04:56:14;97209.47;;;15.52;100.00
74675;BME280;63200;48.810;12.352;2023-09-19T04:58:40;97215.88;;;15.47;100.00
74675;BME280;63200;48.810;12.352;2023-09-19T05:01:05;97186.31;;;15.32;100.00
74675;BME280;63200;48.810;12.352;2023-09-19T05:03:30;97167.50;;;15.22;100.00
74675;BME280;63200;48.810;12.352;2023-09-19T05:05:56;97183.41;;;15.20;100.00
74675;BME280;63200;48.810;12.352;2023-09-19T05:08:22;97228.78;;;15.47;100.00
74675;BME280;63200;48.810;12.352;2023-09-19T05:10:47;97228.94;;;15.51;100.00
74675;BME280;63200;48.810;12.352;2023-09-19T05:13:14;97226.84;;;15.56;100.00
74675;BME280;63200;48.810;12.352;2023-09-19T05:15:39;97233.25;;;15.52;100.00
74675;BME280;63200;48.810;12.352;2023-09-19T05:18:05;97211.53;;;15.46;100.00
74675;BME280;63200;48.810;12.352;2023-09-19T05:20:31;97235.50;;;15.67;100.00
74675;BME280;63200;48.810;12.352;2023-09-19T05:23:04;97237.13;;;15.68;100.00
74675;BME280;63200;48.810;12.352;2023-09-19T05:25:33;97235.69;;;15.71;100.00
74675;BME280;63200;48.810;12.352;2023-09-19T05:28:03;97240.69;;;15.60;100.00
74675;BME280;63200;48.810;12.352;2023-09-19T05:30:29;97243.88;;;15.71;100.00
74675;BME280;63200;48.810;12.352;2023-09-19T05:32:55;97245.66;;;15.66;100.00
74675;BME280;63200;48.810;12.352;2023-09-19T05:35:21;97244.84;;;15.75;100.00
74675;BME280;63200;48.810;12.352;2023-09-19T05:37:50;97253.38;;;15.73;100.00
74675;BME280;63200;48.810;12.352;2023-09-19T05:40:17;97257.56;;;15.71;100.00
74675;BME280;63200;48.810;12.352;2023-09-19T05:42:42;97256.91;;;15.74;100.00
74675;BME280;63200;48.810;12.352;2023-09-19T05:45:09;97245.34;;;15.59;100.00
74675;BME280;63200;48.810;12.352;2023-09-19T05:47:37;97264.34;;;15.82;100.00
74675;BME280;63200;48.810;12.352;2023-09-19T05:50:03;97256.59;;;15.75;100.00
74675;BME280;63200;48.810;12.352;2023-09-19T05:52:30;97265.63;;;15.85;100.00
74675;BME280;63200;48.810;12.352;2023-09-19T05:54:55;97265.78;;;15.88;100.00
74675;BME280;63200;48.810;12.352;2023-09-19T05:57:21;97266.78;;;15.84;100.00
74675;BME280;63200;48.810;12.352;2023-09-19T05:59:47;97248.25;;;15.80;100.00
74675;BME280;63200;48.810;12.352;2023-09-19T06:02:14;97264.66;;;15.89;100.00
74675;BME280;63200;48.810;12.352;2023-09-19T06:04:40;97278.03;;;15.82;100.00
74675;BME280;63200;48.810;12.352;2023-09-19T06:07:06;97268.19;;;15.90;100.00
74675;BME280;63200;48.810;12.352;2023-09-19T06:09:31;97272.38;;;15.87;100.00
74675;BME280;63200;48.810;12.352;2023-09-19T06:11:57;97270.31;;;15.93;100.00
74675;BME280;63200;48.810;12.352;2023-09-19T06:14:23;97273.34;;;16.00;100.00
74675;BME280;63200;48.810;12.352;2023-09-19T06:16:49;97279.59;;;16.09;100.00
74675;BME280;63200;48.810;12.352;2023-09-19T06:19:15;97248.19;;;16.15;100.00
74675;BME280;63200;48.810;12.352;2023-09-19T06:21:40;97282.53;;;16.52;100.00
74675;BME280;63200;48.810;12.352;2023-09-19T06:24:06;97261.41;;;16.52;100.00
74675;BME280;63200;48.810;12.352;2023-09-19T06:26:32;97273.28;;;16.65;100.00
74675;BME280;63200;48.810;12.352;2023-09-19T06:28:57;97281.00;;;16.72;100.00
74675;BME280;63200;48.810;12.352;2023-09-19T06:31:24;97281.50;;;16.65;100.00
74675;BME280;63200;48.810;12.352;2023-09-19T06:33:52;97283.19;;;16.48;100.00
74675;BME280;63200;48.810;12.352;2023-09-19T06:36:17;97284.94;;;16.53;100.00
74675;BME280;63200;48.810;12.352;2023-09-19T06:38:42;97249.28;;;16.23;100.00
74675;BME280;63200;48.810;12.352;2023-09-19T06:41:08;97252.41;;;16.81;100.00
74675;BME280;63200;48.810;12.352;2023-09-19T06:43:34;97299.13;;;17.03;100.00
74675;BME280;63200;48.810;12.352;2023-09-19T06:46:00;97300.84;;;17.37;100.00
74675;BME280;63200;48.810;12.352;2023-09-19T06:48:26;97306.28;;;19.05;100.00
74675;BME280;63200;48.810;12.352;2023-09-19T06:50:58;97278.84;;;19.74;100.00
74675;BME280;63200;48.810;12.352;2023-09-19T06:53:24;97306.22;;;20.23;100.00
74675;BME280;63200;48.810;12.352;2023-09-19T06:55:50;97317.97;;;19.92;100.00
74675;BME280;63200;48.810;12.352;2023-09-19T06:58:16;97269.88;;;20.18;95.02
74675;BME280;63200;48.810;12.352;2023-09-19T07:00:42;97316.06;;;21.17;91.09
74675;BME280;63200;48.810;12.352;2023-09-19T07:03:08;97327.00;;;21.29;86.98
74675;BME280;63200;48.810;12.352;2023-09-19T07:05:37;97320.69;;;21.12;87.06
74675;BME280;63200;48.810;12.352;2023-09-19T07:08:07;97324.19;;;21.09;89.40
74675;BME280;63200;48.810;12.352;2023-09-19T07:10:34;97335.78;;;20.83;89.74
74675;BME280;63200;48.810;12.352;2023-09-19T07:13:04;97337.16;;;21.76;83.70
74675;BME280;63200;48.810;12.352;2023-09-19T07:15:32;97340.50;;;20.83;91.15
74675;BME280;63200;48.810;12.352;2023-09-19T07:18:00;97347.84;;;19.65;100.00
74675;BME280;63200;48.810;12.352;2023-09-19T07:20:26;97351.69;;;19.36;100.00
74675;BME280;63200;48.810;12.352;2023-09-19T07:22:52;97351.59;;;19.20;100.00
74675;BME280;63200;48.810;12.352;2023-09-19T07:25:20;97355.00;;;18.46;100.00
74675;BME280;63200;48.810;12.352;2023-09-19T07:27:45;97332.81;;;17.75;100.00
74675;BME280;63200;48.810;12.352;2023-09-19T07:30:11;97362.13;;;17.92;100.00
74675;BME280;63200;48.810;12.352;2023-09-19T07:32:37;97363.47;;;18.07;100.00
74675;BME280;63200;48.810;12.352;2023-09-19T07:35:03;97365.06;;;18.42;100.00
74675;BME280;63200;48.810;12.352;2023-09-19T07:37:29;97311.69;;;17.97;100.00
74675;BME280;63200;48.810;12.352;2023-09-19T07:39:56;97364.88;;;19.42;100.00
74675;BME280;63200;48.810;12.352;2023-09-19T07:42:21;97357.66;;;21.08;93.34
74675;BME280;63200;48.810;12.352;2023-09-19T07:44:47;97359.91;;;21.89;79.41
74675;BME280;63200;48.810;12.352;2023-09-19T07:47:15;97353.00;;;21.79;76.09
74675;BME280;63200;48.810;12.352;2023-09-19T07:49:41;97342.22;;;21.39;82.32
74675;BME280;63200;48.810;12.352;2023-09-19T07:52:08;97363.72;;;20.53;87.73
74675;BME280;63200;48.810;12.352;2023-09-19T07:54:34;97368.34;;;20.77;88.84
74675;BME280;63200;48.810;12.352;2023-09-19T07:57:01;97367.38;;;21.02;81.39
74675;BME280;63200;48.810;12.352;2023-09-19T07:59:26;97371.47;;;20.92;90.19
74675;BME280;63200;48.810;12.352;2023-09-19T08:01:52;97363.44;;;20.71;82.63
74675;BME280;63200;48.810;12.352;2023-09-19T08:04:17;97379.41;;;20.21;91.36
74675;BME280;63200;48.810;12.352;2023-09-19T08:06:44;97386.84;;;19.67;100.00
74675;BME280;63200;48.810;12.352;2023-09-19T08:09:12;97393.88;;;19.40;100.00
74675;BME280;63200;48.810;12.352;2023-09-19T08:11:41;97392.97;;;19.23;100.00
74675;BME280;63200;48.810;12.352;2023-09-19T08:14:06;97392.00;;;18.94;100.00
74675;BME280;63200;48.810;12.352;2023-09-19T08:16:32;97398.72;;;18.72;100.00
74675;BME280;63200;48.810;12.352;2023-09-19T08:18:58;97395.06;;;18.80;100.00
74675;BME280;63200;48.810;12.352;2023-09-19T08:21:23;97394.22;;;19.51;100.00
74675;BME280;63200;48.810;12.352;2023-09-19T08:23:49;97400.53;;;20.45;97.32
74675;BME280;63200;48.810;12.352;2023-09-19T08:26:15;97402.25;;;20.50;86.37
74675;BME280;63200;48.810;12.352;2023-09-19T08:28:40;97379.84;;;20.23;88.85
74675;BME280;63200;48.810;12.352;2023-09-19T08:31:07;97409.75;;;20.08;91.86
74675;BME280;63200;48.810;12.352;2023-09-19T08:33:34;97405.72;;;20.18;93.04
74675;BME280;63200;48.810;12.352;2023-09-19T08:36:01;97405.41;;;20.64;90.27
74675;BME280;63200;48.810;12.352;2023-09-19T08:38:31;97402.94;;;20.46;89.71
74675;BME280;63200;48.810;12.352;2023-09-19T08:40:59;97357.22;;;19.89;89.85
74675;BME280;63200;48.810;12.352;2023-09-19T08:43:25;97402.03;;;20.42;90.54
74675;BME280;63200;48.810;12.352;2023-09-19T08:45:58;97402.75;;;20.39;85.90
74675;BME280;63200;48.810;12.352;2023-09-19T08:48:29;97404.69;;;20.10;88.67
74675;BME280;63200;48.810;12.352;2023-09-19T08:51:03;97407.72;;;19.80;98.77
74675;BME280;63200;48.810;12.352;2023-09-19T08:53:36;97409.47;;;19.60;100.00
74675;BME280;63200;48.810;12.352;2023-09-19T08:56:09;97403.31;;;19.26;100.00
74675;BME280;63200;48.810;12.352;2023-09-19T08:58:46;97407.41;;;19.20;100.00
74675;BME280;63200;48.810;12.352;2023-09-19T09:01:16;97395.81;;;19.64;100.00
74675;BME280;63200;48.810;12.352;2023-09-19T09:03:48;97338.06;;;19.80;100.00
74675;BME280;63200;48.810;12.352;2023-09-19T09:06:14;97414.69;;;20.15;97.19
74675;BME280;63200;48.810;12.352;2023-09-19T09:08:41;97403.50;;;21.28;91.50
74675;BME280;63200;48.810;12.352;2023-09-19T09:11:07;97395.56;;;22.73;77.04
74675;BME280;63200;48.810;12.352;2023-09-19T09:13:35;97407.03;;;23.91;69.31
74675;BME280;63200;48.810;12.352;2023-09-19T09:16:01;97376.56;;;23.94;66.07
74675;BME280;63200;48.810;12.352;2023-09-19T09:18:28;97401.13;;;23.42;68.58
74675;BME280;63200;48.810;12.352;2023-09-19T09:20:55;97392.94;;;22.37;70.20
74675;BME280;63200;48.810;12.352;2023-09-19T09:23:21;97398.38;;;22.34;74.54
74675;BME280;63200;48.810;12.352;2023-09-19T09:25:51;97402.91;;;22.85;73.79
74675;BME280;63200;48.810;12.352;2023-09-19T09:28:24;97401.72;;;22.43;72.46
74675;BME280;63200;48.810;12.352;2023-09-19T09:30:50;97365.00;;;21.68;82.11
74675;BME280;63200;48.810;12.352;2023-09-19T09:33:16;97399.94;;;21.44;82.73
74675;BME280;63200;48.810;12.352;2023-09-19T09:35:58;97406.25;;;20.80;88.80
74675;BME280;63200;48.810;12.352;2023-09-19T09:38:29;97405.97;;;20.41;92.34
74675;BME280;63200;48.810;12.352;2023-09-19T09:40:59;97372.41;;;19.83;96.17
74675;BME280;63200;48.810;12.352;2023-09-19T09:43:30;97411.41;;;19.60;100.00
74675;BME280;63200;48.810;12.352;2023-09-19T09:46:08;97414.75;;;19.53;100.00
74675;BME280;63200;48.810;12.352;2023-09-19T09:51:39;97404.75;;;19.48;100.00
74675;BME280;63200;48.810;12.352;2023-09-19T09:54:15;97405.00;;;19.31;100.00
74675;BME280;63200;48.810;12.352;2023-09-19T09:57:00;97415.78;;;19.24;100.00
74675;BME280;63200;48.810;12.352;2023-09-19T09:59:52;97417.50;;;18.70;100.00
74675;BME280;63200;48.810;12.352;2023-09-19T10:02:28;97441.69;;;18.43;100.00
74675;BME280;63200;48.810;12.352;2023-09-19T10:04:56;97447.22;;;18.22;100.00
74675;BME280;63200;48.810;12.352;2023-09-19T10:07:32;97455.25;;;17.76;100.00
74675;BME280;63200;48.810;12.352;2023-09-19T10:10:04;97469.72;;;17.17;100.00
74675;BME280;63200;48.810;12.352;2023-09-19T10:12:54;97478.66;;;16.88;100.00
74675;BME280;63200;48.810;12.352;2023-09-19T10:15:23;97482.44;;;16.39;100.00
74675;BME280;63200;48.810;12.352;2023-09-19T10:17:52;97493.50;;;16.16;100.00
74675;BME280;63200;48.810;12.352;2023-09-19T10:20:21;97507.19;;;15.99;100.00
74675;BME280;63200;48.810;12.352;2023-09-19T10:23:07;97509.03;;;15.72;100.00
74675;BME280;63200;48.810;12.352;2023-09-19T10:25:41;97512.84;;;15.54;100.00
74675;BME280;63200;48.810;12.352;2023-09-19T10:28:08;97468.63;;;15.20;100.00
74675;BME280;63200;48.810;12.352;2023-09-19T10:30:47;97505.28;;;15.51;100.00
74675;BME280;63200;48.810;12.352;2023-09-19T10:33:35;97461.47;;;15.02;100.00
74675;BME280;63200;48.810;12.352;2023-09-19T10:36:03;97433.75;;;14.94;100.00
74675;BME280;63200;48.810;12.352;2023-09-19T10:38:30;97492.03;;;15.44;100.00
74675;BME280;63200;48.810;12.352;2023-09-19T10:40:59;97484.72;;;15.71;100.00
74675;BME280;63200;48.810;12.352;2023-09-19T10:43:30;97493.69;;;16.11;100.00
74675;BME280;63200;48.810;12.352;2023-09-19T10:46:01;97490.31;;;16.41;100.00
74675;BME280;63200;48.810;12.352;2023-09-19T10:48:29;97490.44;;;16.79;100.00
74675;BME280;63200;48.810;12.352;2023-09-19T10:53:25;97454.31;;;16.77;100.00
74675;BME280;63200;48.810;12.352;2023-09-19T10:55:56;97500.06;;;17.21;100.00
74675;BME280;63200;48.810;12.352;2023-09-19T10:58:29;97505.03;;;17.27;100.00
74675;BME280;63200;48.810;12.352;2023-09-19T11:00:59;97507.09;;;17.39;100.00
74675;BME280;63200;48.810;12.352;2023-09-19T11:03:30;97507.31;;;17.25;100.00
74675;BME280;63200;48.810;12.352;2023-09-19T11:06:15;97503.47;;;17.18;100.00
74675;BME280;63200;48.810;12.352;2023-09-19T11:09:01;97494.41;;;17.26;100.00
74675;BME280;63200;48.810;12.352;2023-09-19T11:11:48;97489.00;;;17.47;100.00
74675;BME280;63200;48.810;12.352;2023-09-19T11:30:50;97475.13;;;17.73;100.00
74675;BME280;63200;48.810;12.352;2023-09-19T11:33:20;97482.81;;;17.89;100.00
74675;BME280;63200;48.810;12.352;2023-09-19T11:43:52;97472.28;;;19.09;100.00
74675;BME280;63200;48.810;12.352;2023-09-19T11:46:20;97418.47;;;18.87;98.06
74675;BME280;63200;48.810;12.352;2023-09-19T11:48:49;97482.06;;;19.31;99.38
74675;BME280;63200;48.810;12.352;2023-09-19T11:51:19;97480.16;;;19.56;91.72
74675;BME280;63200;48.810;12.352;2023-09-19T11:53:51;97476.59;;;19.80;92.88
74675;BME280;63200;48.810;12.352;2023-09-19T11:56:18;97476.31;;;20.23;92.33
74675;BME280;63200;48.810;12.352;2023-09-19T11:58:46;97479.78;;;20.60;82.45
74675;BME280;63200;48.810;12.352;2023-09-19T12:01:13;97483.47;;;20.52;78.51
74675;BME280;63200;48.810;12.352;2023-09-19T12:03:46;97457.53;;;20.41;78.66
74675;BME280;63200;48.810;12.352;2023-09-19T12:06:15;97474.72;;;20.22;78.09
74675;BME280;63200;48.810;12.352;2023-09-19T12:08:42;97433.56;;;19.76;86.24
74675;BME280;63200;48.810;12.352;2023-09-19T12:11:12;97475.88;;;20.49;83.54
74675;BME280;63200;48.810;12.352;2023-09-19T12:13:45;97463.44;;;20.96;76.73
74675;BME280;63200;48.810;12.352;2023-09-19T12:16:20;97465.22;;;21.36;71.19
74675;BME280;63200;48.810;12.352;2023-09-19T12:18:50;97456.13;;;21.84;70.19
74675;BME280;63200;48.810;12.352;2023-09-19T12:21:31;97432.34;;;21.79;66.50
74675;BME280;63200;48.810;12.352;2023-09-19T12:26:41;97459.03;;;21.55;70.44
74675;BME280;63200;48.810;12.352;2023-09-19T12:29:14;97453.19;;;22.12;71.35
74675;BME280;63200;48.810;12.352;2023-09-19T12:31:56;97452.19;;;22.36;66.18
74675;BME280;63200;48.810;12.352;2023-09-19T12:34:32;97430.38;;;22.35;66.51
74675;BME280;63200;48.810;12.352;2023-09-19T12:37:14;97443.00;;;22.52;64.95
74675;BME280;63200;48.810;12.352;2023-09-19T12:39:51;97447.81;;;22.55;64.71
74675;BME280;63200;48.810;12.352;2023-09-19T12:42:24;97446.69;;;22.79;64.45
74675;BME280;63200;48.810;12.352;2023-09-19T12:44:53;97437.72;;;22.86;65.62
74675;BME280;63200;48.810;12.352;2023-09-19T12:47:23;97442.19;;;23.13;65.20
74675;BME280;63200;48.810;12.352;2023-09-19T12:52:38;97439.59;;;23.01;63.54
74675;BME280;63200;48.810;12.352;2023-09-19T12:55:04;97425.22;;;23.15;61.66
74675;BME280;63200;48.810;12.352;2023-09-19T12:57:30;97438.34;;;22.56;62.22
74675;BME280;63200;48.810;12.352;2023-09-19T13:00:03;97433.91;;;23.37;63.62
74675;BME280;63200;48.810;12.352;2023-09-19T13:02:31;97414.38;;;23.53;59.93
74675;BME280;63200;48.810;12.352;2023-09-19T13:04:58;97429.38;;;23.78;60.06
74675;BME280;63200;48.810;12.352;2023-09-19T13:07:44;97430.31;;;23.13;62.39
74675;BME280;63200;48.810;12.352;2023-09-19T13:10:11;97431.84;;;23.10;65.72
74675;BME280;63200;48.810;12.352;2023-09-19T13:12:39;97427.25;;;22.17;63.35
74675;BME280;63200;48.810;12.352;2023-09-19T13:15:10;97390.94;;;22.18;62.16
74675;BME280;63200;48.810;12.352;2023-09-19T13:17:44;97436.50;;;21.89;58.63
74675;BME280;63200;48.810;12.352;2023-09-19T13:20:24;97430.22;;;22.27;62.86
74675;BME280;63200;48.810;12.352;2023-09-19T13:22:53;97424.19;;;22.61;63.25
74675;BME280;63200;48.810;12.352;2023-09-19T13:25:21;97427.69;;;22.19;59.20
74675;BME280;63200;48.810;12.352;2023-09-19T13:27:49;97429.78;;;21.06;64.94
74675;BME280;63200;48.810;12.352;2023-09-19T13:30:20;97396.72;;;21.74;67.82
74675;BME280;63200;48.810;12.352;2023-09-19T13:32:45;97383.63;;;22.69;60.74
74675;BME280;63200;48.810;12.352;2023-09-19T13:35:13;97416.13;;;22.72;57.73
74675;BME280;63200;48.810;12.352;2023-09-19T13:37:39;97421.16;;;22.27;59.32